Time;durP1;ratioP1;P1;durP2;ratioP2;P2;SDS_P1;SDS_P2;PMS_P1;PMS_P2;Temp;Humidity;BMP_temperature;BMP_pressure;BME280_temperature;BME280_humidity;BME280_pressure;Samples;Min_cycle;Max_cycle;Signal;HPM_P1;HPM_P2
2022/08/11 00:04:00;;;;;;;4.53;3.93;;;12.00;99.90;;;;;;8355097;28;20179;-66
2022/08/11 00:08:01;;;;;;;5.60;4.43;;;12.00;99.90;;;;;;8360184;28;20184;-67
2022/08/11 00:12:03;;;;;;;4.60;4.13;;;11.90;1.00;;;;;;8352072;28;20218;-67
2022/08/11 00:16:15;;;;;;;4.27;3.87;;;11.80;1.00;;;;;;8346797;28;20179;-66
2022/08/11 00:20:16;;;;;;;4.40;3.87;;;11.80;1.00;;;;;;8356712;28;20195;-67
2022/08/11 00:24:18;;;;;;;4.37;3.97;;;11.70;1.00;;;;;;8343916;28;20784;-67
2022/08/11 00:28:24;;;;;;;5.67;4.40;;;11.70;1.00;;;;;;8352447;28;20191;-66
2022/08/11 00:32:27;;;;;;;4.60;3.87;;;11.60;43.50;;;;;;8351194;28;20241;-67
2022/08/11 00:36:46;;;;;;;5.17;4.10;;;11.60;37.40;;;;;;8348817;28;20226;-67
2022/08/11 00:41:30;;;;;;;4.37;3.97;;;11.50;94.80;;;;;;8348548;28;20192;-67
2022/08/11 00:45:45;;;;;;;4.53;3.87;;;11.40;99.90;;;;;;8347774;28;20184;-67
2022/08/11 00:50:02;;;;;;;7.20;4.20;;;11.40;99.90;;;;;;8353447;28;20275;-66
2022/08/11 00:54:37;;;;;;;6.87;4.47;;;11.30;99.90;;;;;;8330458;28;20265;-67
2022/08/11 00:59:15;;;;;;;5.13;4.57;;;11.30;99.90;;;;;;8344158;28;20248;-67
2022/08/11 01:03:18;;;;;;;5.00;4.50;;;11.20;99.90;;;;;;8353116;28;20183;-67
2022/08/11 01:07:28;;;;;;;5.83;4.00;;;11.20;1.00;;;;;;8350480;28;20194;-67
2022/08/11 01:11:57;;;;;;;5.90;4.73;;;11.20;1.00;;;;;;8350576;28;20249;-67
2022/08/11 01:16:03;;;;;;;4.07;3.67;;;11.20;1.00;;;;;;8342518;28;20178;-67
2022/08/11 01:20:24;;;;;;;5.13;4.17;;;11.10;1.00;;;;;;8347157;28;20178;-67
2022/08/11 01:24:57;;;;;;;6.37;4.30;;;11.10;99.90;;;;;;8345995;28;20324;-68
2022/08/11 01:29:19;;;;;;;5.17;4.50;;;11.00;99.90;;;;;;8344769;28;20248;-67
2022/08/11 01:33:44;;;;;;;4.93;4.07;;;11.00;99.90;;;;;;8349010;28;20194;-67
2022/08/11 01:38:29;;;;;;;4.97;4.50;;;11.00;1.00;;;;;;8342269;28;20248;-67
2022/08/11 01:52:02;;;;;;;4.80;4.30;;;10.90;1.00;;;;;;8347786;28;20205;-67
2022/08/11 01:56:26;;;;;;;6.03;4.37;;;10.80;77.10;;;;;;8349253;28;20182;-67
2022/08/11 02:00:31;;;;;;;4.83;4.27;;;10.80;99.90;;;;;;8341907;28;20191;-67
2022/08/11 02:04:47;;;;;;;4.60;4.17;;;10.80;99.90;;;;;;8361077;28;20508;-67
2022/08/11 02:09:23;;;;;;;5.97;4.40;;;10.80;1.00;;;;;;8351326;28;20227;-67
2022/08/11 02:13:33;;;;;;;4.63;4.13;;;10.70;99.90;;;;;;8345558;28;20206;-66
2022/08/11 02:18:02;;;;;;;5.37;4.87;;;10.70;1.00;;;;;;8344491;28;20209;-66
2022/08/11 02:27:19;;;;;;;4.57;4.10;;;10.70;1.00;;;;;;8350880;28;20176;-66
2022/08/11 02:36:22;;;;;;;4.20;3.80;;;10.60;1.00;;;;;;8351308;28;20235;-66
2022/08/11 02:40:33;;;;;;;6.23;4.10;;;10.50;1.00;;;;;;8360444;28;20198;-66
2022/08/11 02:44:52;;;;;;;4.10;3.70;;;10.40;99.90;;;;;;8351548;28;20182;-66
2022/08/11 02:53:36;;;;;;;4.93;4.30;;;10.40;99.90;;;;;;8348995;28;20214;-66
2022/08/11 02:57:46;;;;;;;5.13;3.83;;;10.30;99.90;;;;;;8347844;28;20244;-66
2022/08/11 03:01:57;;;;;;;4.23;3.83;;;10.20;1.00;;;;;;8354340;28;20193;-66
2022/08/11 03:06:13;;;;;;;4.10;3.70;;;10.10;88.60;;;;;;8352163;28;20261;-66
2022/08/11 03:10:41;;;;;;;5.03;3.90;;;10.00;16.20;;;;;;8344580;28;20198;-66
2022/08/11 03:20:09;;;;;;;4.10;3.80;;;9.90;1.00;;;;;;8347370;28;20217;-65
2022/08/11 03:24:45;;;;;;;4.70;4.13;;;9.80;16.30;;;;;;8351447;28;20183;-65
2022/08/11 03:29:04;;;;;;;4.40;4.00;;;9.70;99.90;;;;;;8337268;28;20245;-66
2022/08/11 03:37:59;;;;;;;4.27;3.87;;;9.70;99.90;;;;;;8349384;28;20221;-66
2022/08/11 03:42:15;;;;;;;4.70;4.20;;;9.70;1.00;;;;;;8352192;28;20174;-66
2022/08/11 03:46:55;;;;;;;4.37;3.90;;;9.70;1.00;;;;;;8348624;28;20178;-66
2022/08/11 03:51:11;;;;;;;3.97;3.57;;;9.70;1.00;;;;;;8353742;28;20174;-65
2022/08/11 03:55:42;;;;;;;4.00;3.60;;;9.80;1.00;;;;;;8346665;28;20178;-66
2022/08/11 04:00:13;;;;;;;4.43;4.03;;;9.80;1.00;;;;;;8350407;28;20220;-66
2022/08/11 04:04:35;;;;;;;4.80;4.30;;;9.90;1.00;;;;;;8343365;28;20175;-67
2022/08/11 04:08:55;;;;;;;5.57;5.07;;;10.00;1.00;;;;;;8344640;28;20185;-67
2022/08/11 04:13:01;;;;;;;5.60;5.00;;;10.20;1.00;;;;;;8346256;28;20343;-67
2022/08/11 04:17:28;;;;;;;5.20;4.70;;;11.20;1.00;;;;;;8341997;28;20205;-67
2022/08/11 04:21:59;;;;;;;5.50;4.60;;;12.20;1.00;;;;;;8343599;28;20184;-67
2022/08/11 04:26:48;;;;;;;6.17;4.77;;;13.10;99.90;;;;;;8339455;28;20206;-74
2022/08/11 04:30:58;;;;;;;4.50;4.10;;;13.60;86.80;;;;;;8344219;28;20192;-67
2022/08/11 04:35:16;;;;;;;4.93;4.00;;;13.40;99.90;;;;;;8344239;28;20223;-67
2022/08/11 04:39:43;;;;;;;4.30;3.90;;;13.10;99.90;;;;;;8339375;28;20200;-66
2022/08/11 04:44:11;;;;;;;4.53;4.13;;;13.20;99.90;;;;;;8339161;28;20195;-66
2022/08/11 05:02:15;;;;;;;3.87;3.30;;;15.90;99.90;;;;;;8344375;28;20280;-67
2022/08/11 05:06:51;;;;;;;5.47;4.03;;;16.10;99.90;;;;;;8356716;28;20246;-67
2022/08/11 05:11:20;;;;;;;5.40;3.80;;;15.80;99.90;;;;;;8339316;28;20194;-68
2022/08/11 05:59:45;;;;;;;12.47;9.97;;;15.80;99.90;;;;;;8353824;28;20272;-68
2022/08/11 06:08:13;;;;;;;15.63;8.70;;;16.00;99.90;;;;;;8346660;28;20792;-68
2022/08/11 06:12:23;;;;;;;16.00;7.57;;;16.20;99.90;;;;;;8362055;28;20214;-67
2022/08/11 06:16:27;;;;;;;11.27;6.20;;;16.40;99.90;;;;;;8358284;28;20193;-67
2022/08/11 06:20:36;;;;;;;7.87;6.63;;;16.70;78.10;;;;;;8351345;28;20192;-67
2022/08/11 06:24:49;;;;;;;7.00;5.10;;;17.00;5.60;;;;;;8348331;28;20274;-67
2022/08/11 06:28:50;;;;;;;6.47;4.97;;;17.20;1.00;;;;;;8342063;28;20285;-67
2022/08/11 06:32:54;;;;;;;8.03;4.07;;;17.50;1.00;;;;;;8348967;28;20536;-68
2022/08/11 06:37:19;;;;;;;9.90;4.63;;;17.80;99.90;;;;;;8347597;28;20221;-67
2022/08/11 06:41:56;;;;;;;5.53;4.50;;;18.00;99.90;;;;;;8343656;28;20185;-67
2022/08/11 06:46:06;;;;;;;4.53;3.97;;;18.10;99.90;;;;;;8346007;28;20332;-67
2022/08/11 06:54:32;;;;;;;6.33;4.40;;;18.50;99.90;;;;;;8340826;28;20193;-66
2022/08/11 07:03:02;;;;;;;9.23;4.50;;;19.00;99.90;;;;;;8334933;28;20185;-67
2022/08/11 07:16:42;;;;;;;8.70;4.57;;;19.70;95.70;;;;;;8339108;28;20217;-67
2022/08/11 07:29:37;;;;;;;5.00;2.80;;;20.40;7.20;;;;;;8334995;28;20197;-67
2022/08/11 07:33:48;;;;;;;2.80;2.50;;;20.60;1.00;;;;;;8343813;28;20230;-68
2022/08/11 07:37:58;;;;;;;3.33;2.33;;;20.80;1.00;;;;;;8335120;28;20538;-67
2022/08/11 07:42:03;;;;;;;4.97;1.70;;;21.00;1.00;;;;;;8338810;28;20185;-67
2022/08/11 07:54:45;;;;;;;3.90;1.97;;;21.60;1.00;;;;;;8336736;28;20197;-65
2022/08/11 08:20:49;;;;;;;3.07;1.50;;;22.60;1.00;;;;;;8335038;28;20370;-65
2022/08/11 08:24:51;;;;;;;2.37;1.90;;;22.70;1.00;;;;;;8335005;28;20182;-66
2022/08/11 08:28:54;;;;;;;2.50;1.93;;;22.90;1.00;;;;;;8350002;28;20189;-66
2022/08/11 08:32:56;;;;;;;1.63;1.50;;;23.10;1.00;;;;;;8350290;28;20182;-66
2022/08/11 08:36:57;;;;;;;1.77;1.60;;;23.20;1.00;;;;;;8334770;28;20208;-66
2022/08/11 08:40:59;;;;;;;1.37;1.17;;;23.30;1.00;;;;;;8335231;28;20183;-66
2022/08/11 08:45:10;;;;;;;1.27;1.13;;;23.50;1.00;;;;;;8338298;28;20193;-65
2022/08/11 08:49:20;;;;;;;3.20;1.30;;;23.70;1.00;;;;;;8332448;28;20194;-66
2022/08/11 08:53:27;;;;;;;2.53;1.20;;;23.90;1.00;;;;;;8343982;28;20189;-66
2022/08/11 08:57:32;;;;;;;3.63;1.10;;;24.00;1.00;;;;;;8335392;28;20267;-66
2022/08/11 09:01:44;;;;;;;1.93;1.20;;;24.20;1.00;;;;;;8345901;28;20178;-66
2022/08/11 09:05:47;;;;;;;5.23;1.47;;;24.40;1.00;;;;;;8335749;28;20257;-66
2022/08/11 09:09:51;;;;;;;2.03;1.10;;;24.30;1.00;;;;;;8333699;28;20205;-66
2022/08/11 09:13:53;;;;;;;2.53;0.90;;;24.20;1.00;;;;;;8334500;28;20208;-66
2022/08/11 09:18:02;;;;;;;2.03;1.03;;;24.30;1.00;;;;;;8347835;28;20214;-66
2022/08/11 09:30:53;;;;;;;2.80;1.03;;;25.00;1.00;;;;;;8332838;28;20205;-66
2022/08/11 09:34:55;;;;;;;2.87;0.80;;;25.20;1.00;;;;;;8331331;28;20187;-67
2022/08/11 09:47:41;;;;;;;2.47;1.00;;;25.60;1.00;;;;;;8334304;28;20251;-69
2022/08/11 09:51:42;;;;;;;1.87;0.83;;;25.80;1.00;;;;;;8345167;28;20193;-66
2022/08/11 09:55:47;;;;;;;1.07;0.83;;;25.80;1.00;;;;;;8347410;28;20307;-66
2022/08/11 09:59:54;;;;;;;1.63;0.77;;;25.80;1.00;;;;;;8347817;28;20218;-66
2022/08/11 10:04:07;;;;;;;1.42;0.70;;;26.00;1.00;;;;;;8336232;28;20267;-65
2022/08/11 10:08:11;;;;;;;1.70;0.90;;;26.20;1.00;;;;;;8335648;28;20193;-65
2022/08/11 10:12:36;;;;;;;2.20;0.73;;;26.30;1.00;;;;;;8333038;28;20235;-64
2022/08/11 10:16:40;;;;;;;1.67;0.88;;;26.60;1.00;;;;;;8335864;28;20186;-66
2022/08/11 10:20:49;;;;;;;4.07;1.15;;;27.10;1.00;;;;;;8346874;28;20182;-64
2022/08/11 10:37:53;;;;;;;0.93;0.70;;;27.80;1.00;;;;;;8340125;28;20212;-65
2022/08/11 10:59:29;;;;;;;1.55;1.00;;;27.70;1.00;;;;;;8341807;28;20217;-65
2022/08/11 11:03:33;;;;;;;2.10;1.20;;;27.50;1.00;;;;;;8335449;28;20267;-65
2022/08/11 11:08:02;;;;;;;4.28;1.13;;;27.50;1.00;;;;;;8343316;28;20199;-66
2022/08/11 11:21:03;;;;;;;1.73;1.00;;;27.30;1.00;;;;;;8336469;28;20185;-66
2022/08/11 11:25:31;;;;;;;2.63;1.05;;;27.50;1.00;;;;;;8334613;28;20183;-64
2022/08/11 11:29:47;;;;;;;1.45;0.80;;;27.60;1.00;;;;;;8341222;28;20210;-65
2022/08/11 11:34:18;;;;;;;1.75;1.00;;;27.90;1.00;;;;;;8339862;28;20186;-65
2022/08/11 11:38:19;;;;;;;3.80;1.20;;;28.10;1.00;;;;;;8333849;28;20210;-65
2022/08/11 11:42:21;;;;;;;2.30;1.08;;;28.20;1.00;;;;;;8339937;28;20189;-66
2022/08/11 11:46:28;;;;;;;2.08;1.13;;;28.10;1.00;;;;;;8333452;28;20297;-66
2022/08/11 11:50:33;;;;;;;1.33;1.08;;;28.20;1.00;;;;;;8351462;28;20187;-67
2022/08/11 11:54:37;;;;;;;3.13;1.50;;;28.20;1.00;;;;;;8337191;28;20186;-65
2022/08/11 12:03:01;;;;;;;3.42;1.10;;;27.80;1.00;;;;;;8335924;28;20302;-66
2022/08/11 12:15:47;;;;;;;1.00;0.90;;;28.30;1.00;;;;;;8338415;28;20192;-65
2022/08/11 12:19:48;;;;;;;1.70;1.08;;;28.50;1.00;;;;;;8331742;28;21049;-66
2022/08/11 12:28:09;;;;;;;1.60;0.95;;;27.60;1.00;;;;;;8333287;28;20194;-69
2022/08/11 12:32:11;;;;;;;1.45;1.13;;;27.20;1.00;;;;;;8334764;28;20210;-66
2022/08/11 12:36:15;;;;;;;2.75;1.08;;;27.10;1.00;;;;;;8337302;28;20187;-67
2022/08/11 12:53:33;;;;;;;1.20;1.10;;;28.30;1.00;;;;;;8335718;28;20208;-65
2022/08/11 13:06:25;;;;;;;1.48;0.90;;;27.60;1.00;;;;;;8333641;28;20250;-64
2022/08/11 13:14:48;;;;;;;3.47;1.40;;;27.70;1.00;;;;;;8334735;28;21516;-69
2022/08/11 13:18:50;;;;;;;1.83;1.20;;;28.00;1.00;;;;;;8330765;28;20331;-65
2022/08/11 13:22:55;;;;;;;1.73;1.30;;;28.20;1.00;;;;;;8348615;28;20210;-65
2022/08/11 13:26:57;;;;;;;2.00;1.13;;;28.40;1.00;;;;;;8339066;28;20179;-65
2022/08/11 13:31:10;;;;;;;2.55;1.17;;;28.40;1.00;;;;;;8331593;28;20270;-65
2022/08/11 13:35:16;;;;;;;2.83;1.33;;;28.60;1.00;;;;;;8332653;28;20178;-65
2022/08/11 13:39:20;;;;;;;2.20;1.10;;;28.70;1.00;;;;;;8338146;28;20213;-65
2022/08/11 13:43:22;;;;;;;1.23;1.00;;;28.80;1.00;;;;;;8331906;28;20202;-65
2022/08/11 13:47:23;;;;;;;1.95;1.25;;;28.80;1.00;;;;;;8341576;28;20272;-65
2022/08/11 13:51:34;;;;;;;1.88;1.30;;;29.00;1.00;;;;;;8334078;28;20210;-66
2022/08/11 13:55:35;;;;;;;1.30;1.20;;;29.10;1.00;;;;;;8349186;28;20198;-64
2022/08/11 13:59:37;;;;;;;2.22;1.20;;;29.00;1.00;;;;;;8338406;28;20211;-66
2022/08/11 14:03:41;;;;;;;1.40;1.20;;;28.90;1.00;;;;;;8335433;28;20498;-65
2022/08/11 14:07:58;;;;;;;4.47;1.50;;;28.50;1.00;;;;;;8333749;28;20186;-67
2022/08/11 14:16:29;;;;;;;3.38;1.65;;;28.50;1.00;;;;;;8334388;28;20204;-65
2022/08/11 14:24:54;;;;;;;2.63;1.25;;;28.20;1.00;;;;;;8340199;28;20189;-67
2022/08/11 14:29:28;;;;;;;4.60;1.52;;;27.70;1.00;;;;;;8341505;28;20206;-66
2022/08/11 14:33:31;;;;;;;2.17;1.35;;;27.30;1.00;;;;;;8336145;28;20186;-66
2022/08/11 14:37:32;;;;;;;3.90;1.60;;;27.00;1.00;;;;;;8356639;28;20278;-63
2022/08/11 14:50:22;;;;;;;1.80;1.20;;;27.20;1.00;;;;;;8338741;28;20333;-66
2022/08/11 14:58:53;;;;;;;2.33;1.38;;;27.70;1.00;;;;;;8341140;28;20237;-66
2022/08/11 15:03:10;;;;;;;4.63;1.40;;;28.10;1.00;;;;;;8340744;28;20170;-65
2022/08/11 15:07:11;;;;;;;1.20;1.10;;;28.30;1.00;;;;;;8340557;28;20212;-65
2022/08/11 15:24:18;;;;;;;5.57;1.35;;;27.50;1.00;;;;;;8339289;28;20278;-65
2022/08/11 15:37:26;;;;;;;5.10;3.58;;;26.80;1.00;;;;;;8334643;28;20237;-71
2022/08/11 15:46:10;;;;;;;1.63;1.30;;;27.40;1.00;;;;;;8337319;28;20275;-66
2022/08/11 15:50:20;;;;;;;3.30;1.30;;;27.60;1.00;;;;;;8334902;28;20182;-66
2022/08/11 15:54:29;;;;;;;1.85;1.15;;;27.70;1.00;;;;;;8353664;28;20226;-66
2022/08/11 16:07:26;;;;;;;1.38;1.00;;;27.60;1.00;;;;;;8335352;28;20205;-65
2022/08/11 16:11:27;;;;;;;2.30;1.23;;;27.50;1.00;;;;;;8343089;28;20312;-67
2022/08/11 16:19:54;;;;;;;2.38;1.33;;;27.30;1.00;;;;;;8332691;28;20212;-65
2022/08/11 16:23:57;;;;;;;1.65;1.05;;;27.20;1.00;;;;;;8332078;28;20241;-66
2022/08/11 16:28:05;;;;;;;2.45;1.13;;;27.20;1.00;;;;;;8334889;28;20190;-64
2022/08/11 16:32:16;;;;;;;1.73;1.30;;;27.20;1.00;;;;;;8338430;28;20189;-65
2022/08/11 16:40:42;;;;;;;4.25;1.13;;;26.80;1.00;;;;;;8337417;28;20217;-65
2022/08/11 16:49:07;;;;;;;3.20;1.60;;;26.00;1.00;;;;;;8333403;28;20190;-65
2022/08/11 16:53:11;;;;;;;4.73;1.83;;;25.80;1.00;;;;;;8348378;28;20183;-67
2022/08/11 17:01:58;;;;;;;2.60;1.47;;;25.70;1.00;;;;;;8333798;28;20275;-65
2022/08/11 17:16:05;;;;;;;1.83;1.17;;;26.00;1.00;;;;;;8334684;28;20209;-66
2022/08/11 17:19:32;;;;;;;3.20;1.33;;;25.90;1.00;;;;;;8337397;28;20231;-65
2022/08/11 17:23:49;;;;;;;3.53;1.83;;;25.70;1.00;;;;;;8330524;28;20186;-66
2022/08/11 17:27:51;;;;;;;3.97;2.23;;;25.50;1.00;;;;;;8334137;28;20189;-65
2022/08/11 17:36:16;;;;;;;3.00;1.70;;;25.00;1.00;;;;;;8331297;28;20201;-65
2022/08/11 17:40:23;;;;;;;7.10;1.70;;;24.70;1.00;;;;;;8332610;28;20245;-66
2022/08/11 17:48:46;;;;;;;4.10;1.30;;;25.20;1.00;;;;;;8333466;28;20197;-63
2022/08/11 18:01:34;;;;;;;1.80;1.40;;;25.80;1.00;;;;;;8331185;28;20243;-64
2022/08/11 18:05:42;;;;;;;2.53;1.60;;;25.70;1.00;;;;;;8331139;28;20182;-65
